Terminal Aerodrome Forecast
Issued by NWS Cleveland, OH

Home | Current Version | Previous Version | Text Only | Print | Product List | Glossary On
Versions: 1 2 3 4 5 6 7 8 9 10 11 12 13 14 15 16 17 18 19 20 21 22 23 24 25
000
FTUS41 KCLE 012300 CCA
TAFYNG
TAF COR
KYNG 012343Z 0200/0224 10010KT 1SM -SN OVC004
     FM020400 11010KT 3SM -RASNPL OVC006
      TEMPO 0204/0208 2SM -RAPL
     FM020800 32010KT 3SM -SN OVC006
     FM021600 33015G25KT 2SM BLSN OVC006
     FM022000 33015G25KT 4SM -SN BLSN OVC010=

USA.gov is the U.S. government's official web portal to all federal, state and local government web resources and services.